sensor_id;sensor_type;location;lat;lon;timestamp;temperature;humidity
74484;SHT31;62942;52.462;10.846;2023-01-15T00:00:25;9.7;92.1
74484;SHT31;62942;52.462;10.846;2023-01-15T00:01:35;9.7;92.1
74484;SHT31;62942;52.462;10.846;2023-01-15T00:02:45;9.7;92.2
74484;SHT31;62942;52.462;10.846;2023-01-15T00:03:55;9.7;92.2
74484;SHT31;62942;52.462;10.846;2023-01-15T00:05:05;9.6;92.1
74484;SHT31;62942;52.462;10.846;2023-01-15T00:06:05;9.7;92.2
74484;SHT31;62942;52.462;10.846;2023-01-15T00:07:15;9.6;92.3
74484;SHT31;62942;52.462;10.846;2023-01-15T00:08:25;9.6;92.1
74484;SHT31;62942;52.462;10.846;2023-01-15T00:09:39;9.6;92.2
74484;SHT31;62942;52.462;10.846;2023-01-15T00:10:45;9.6;92
74484;SHT31;62942;52.462;10.846;2023-01-15T00:11:45;9.6;92
74484;SHT31;62942;52.462;10.846;2023-01-15T00:12:55;9.6;91.9
74484;SHT31;62942;52.462;10.846;2023-01-15T00:13:55;9.5;91.8
74484;SHT31;62942;52.462;10.846;2023-01-15T00:15:05;9.6;91.5
74484;SHT31;62942;52.462;10.846;2023-01-15T00:16:05;9.5;91.8
74484;SHT31;62942;52.462;10.846;2023-01-15T00:17:05;9.6;91.6
74484;SHT31;62942;52.462;10.846;2023-01-15T00:18:15;9.6;91.3
74484;SHT31;62942;52.462;10.846;2023-01-15T00:19:25;9.6;90.7
74484;SHT31;62942;52.462;10.846;2023-01-15T00:20:35;9.6;90.9
74484;SHT31;62942;52.462;10.846;2023-01-15T00:21:45;9.6;91
74484;SHT31;62942;52.462;10.846;2023-01-15T00:22:45;9.7;91
74484;SHT31;62942;52.462;10.846;2023-01-15T00:23:55;9.7;91
74484;SHT31;62942;52.462;10.846;2023-01-15T00:24:55;9.7;91
74484;SHT31;62942;52.462;10.846;2023-01-15T00:26:07;9.7;91.1
74484;SHT31;62942;52.462;10.846;2023-01-15T00:27:15;9.6;91.1
74484;SHT31;62942;52.462;10.846;2023-01-15T00:28:25;9.6;91.1
74484;SHT31;62942;52.462;10.846;2023-01-15T00:29:25;9.6;91
74484;SHT31;62942;52.462;10.846;2023-01-15T00:30:25;9.6;90.8
74484;SHT31;62942;52.462;10.846;2023-01-15T00:31:35;9.6;90.9
74484;SHT31;62942;52.462;10.846;2023-01-15T00:32:45;9.6;90.9
74484;SHT31;62942;52.462;10.846;2023-01-15T00:33:45;9.6;90.5
74484;SHT31;62942;52.462;10.846;2023-01-15T00:34:55;9.6;90.4
74484;SHT31;62942;52.462;10.846;2023-01-15T00:36:05;9.7;90.3
74484;SHT31;62942;52.462;10.846;2023-01-15T00:37:15;9.7;90.5
74484;SHT31;62942;52.462;10.846;2023-01-15T00:38:25;9.7;90.4
74484;SHT31;62942;52.462;10.846;2023-01-15T00:39:35;9.6;90.5
74484;SHT31;62942;52.462;10.846;2023-01-15T00:40:45;9.6;90.6
74484;SHT31;62942;52.462;10.846;2023-01-15T00:41:55;9.6;90.9
74484;SHT31;62942;52.462;10.846;2023-01-15T00:42:55;9.6;90.8
74484;SHT31;62942;52.462;10.846;2023-01-15T00:44:05;9.6;90.7
74484;SHT31;62942;52.462;10.846;2023-01-15T00:45:15;9.6;90.8
74484;SHT31;62942;52.462;10.846;2023-01-15T00:46:15;9.6;90.9
74484;SHT31;62942;52.462;10.846;2023-01-15T00:47:25;9.6;90.9
74484;SHT31;62942;52.462;10.846;2023-01-15T00:48:35;9.6;91
74484;SHT31;62942;52.462;10.846;2023-01-15T00:49:35;9.6;91
74484;SHT31;62942;52.462;10.846;2023-01-15T00:50:45;9.6;91.2
74484;SHT31;62942;52.462;10.846;2023-01-15T00:51:55;9.6;91.4
74484;SHT31;62942;52.462;10.846;2023-01-15T00:53:05;9.6;91.5
74484;SHT31;62942;52.462;10.846;2023-01-15T00:54:05;9.6;91.7
74484;SHT31;62942;52.462;10.846;2023-01-15T00:55:15;9.6;91.7
74484;SHT31;62942;52.462;10.846;2023-01-15T00:56:25;9.6;92
74484;SHT31;62942;52.462;10.846;2023-01-15T00:57:35;9.6;91.8
74484;SHT31;62942;52.462;10.846;2023-01-15T00:58:35;9.6;91.8
74484;SHT31;62942;52.462;10.846;2023-01-15T00:59:35;9.5;91.9
74484;SHT31;62942;52.462;10.846;2023-01-15T01:00:45;9.5;91.9
74484;SHT31;62942;52.462;10.846;2023-01-15T01:01:45;9.6;92.1
74484;SHT31;62942;52.462;10.846;2023-01-15T01:02:45;9.6;92.2
74484;SHT31;62942;52.462;10.846;2023-01-15T01:03:55;9.5;92.7
74484;SHT31;62942;52.462;10.846;2023-01-15T01:04:55;9.5;92.9
74484;SHT31;62942;52.462;10.846;2023-01-15T01:06:05;9.5;92
74484;SHT31;62942;52.462;10.846;2023-01-15T01:07:15;9.3;90.7
74484;SHT31;62942;52.462;10.846;2023-01-15T01:08:25;9.1;90.9
74484;SHT31;62942;52.462;10.846;2023-01-15T01:09:35;9;90.7
74484;SHT31;62942;52.462;10.846;2023-01-15T01:10:45;8.8;90.4
74484;SHT31;62942;52.462;10.846;2023-01-15T01:11:55;8.6;90.9
74484;SHT31;62942;52.462;10.846;2023-01-15T01:13:05;8.5;91.2
74484;SHT31;62942;52.462;10.846;2023-01-15T01:14:15;8.4;91.6
74484;SHT31;62942;52.462;10.846;2023-01-15T01:15:25;8.3;91.2
74484;SHT31;62942;52.462;10.846;2023-01-15T01:16:35;8.1;91.4
74484;SHT31;62942;52.462;10.846;2023-01-15T01:17:45;8;91.3
74484;SHT31;62942;52.462;10.846;2023-01-15T01:18:45;8;91
74484;SHT31;62942;52.462;10.846;2023-01-15T01:19:55;7.9;90.1
74484;SHT31;62942;52.462;10.846;2023-01-15T01:20:55;7.8;89.8
74484;SHT31;62942;52.462;10.846;2023-01-15T01:22:05;7.8;90.2
74484;SHT31;62942;52.462;10.846;2023-01-15T01:23:15;7.7;90.7
74484;SHT31;62942;52.462;10.846;2023-01-15T01:24:25;7.6;90.6
74484;SHT31;62942;52.462;10.846;2023-01-15T01:25:35;7.6;90.5
74484;SHT31;62942;52.462;10.846;2023-01-15T01:26:46;7.5;90.9
74484;SHT31;62942;52.462;10.846;2023-01-15T01:27:55;7.5;91.4
74484;SHT31;62942;52.462;10.846;2023-01-15T01:28:55;7.4;91.4
74484;SHT31;62942;52.462;10.846;2023-01-15T01:29:55;7.4;91.7
74484;SHT31;62942;52.462;10.846;2023-01-15T01:31:05;7.4;91.4
74484;SHT31;62942;52.462;10.846;2023-01-15T01:32:05;7.3;90.9
74484;SHT31;62942;52.462;10.846;2023-01-15T01:33:05;7.3;90.5
74484;SHT31;62942;52.462;10.846;2023-01-15T01:34:15;7.3;90.4
74484;SHT31;62942;52.462;10.846;2023-01-15T01:35:15;7.2;90.4
74484;SHT31;62942;52.462;10.846;2023-01-15T01:36:26;7.2;89.9
74484;SHT31;62942;52.462;10.846;2023-01-15T01:37:38;7.1;90.1
74484;SHT31;62942;52.462;10.846;2023-01-15T01:38:45;7.1;90.1
74484;SHT31;62942;52.462;10.846;2023-01-15T01:39:45;7.1;90.3
74484;SHT31;62942;52.462;10.846;2023-01-15T01:40:55;7;90.1
74484;SHT31;62942;52.462;10.846;2023-01-15T01:42:07;7;90.3
74484;SHT31;62942;52.462;10.846;2023-01-15T01:43:16;6.9;90.5
74484;SHT31;62942;52.462;10.846;2023-01-15T01:45:21;6.9;90.7
74484;SHT31;62942;52.462;10.846;2023-01-15T01:45:25;6.9;90.9
74484;SHT31;62942;52.462;10.846;2023-01-15T01:46:35;6.9;91.2
74484;SHT31;62942;52.462;10.846;2023-01-15T01:47:35;6.8;91.2
74484;SHT31;62942;52.462;10.846;2023-01-15T01:48:35;6.8;91.5
74484;SHT31;62942;52.462;10.846;2023-01-15T01:49:45;6.8;91.7
74484;SHT31;62942;52.462;10.846;2023-01-15T01:50:55;6.8;91.4
74484;SHT31;62942;52.462;10.846;2023-01-15T01:51:55;6.7;91.7
74484;SHT31;62942;52.462;10.846;2023-01-15T01:53:05;6.7;91.4
74484;SHT31;62942;52.462;10.846;2023-01-15T01:54:05;6.7;91.1
74484;SHT31;62942;52.462;10.846;2023-01-15T01:55:15;6.7;91.3
74484;SHT31;62942;52.462;10.846;2023-01-15T01:56:15;6.7;90.8
74484;SHT31;62942;52.462;10.846;2023-01-15T01:57:25;6.6;90.1
74484;SHT31;62942;52.462;10.846;2023-01-15T01:58:35;6.6;90.7
74484;SHT31;62942;52.462;10.846;2023-01-15T01:59:35;6.5;90.6
74484;SHT31;62942;52.462;10.846;2023-01-15T02:00:35;6.5;88.5
74484;SHT31;62942;52.462;10.846;2023-01-15T02:01:35;6.4;89.3
74484;SHT31;62942;52.462;10.846;2023-01-15T02:02:45;6.4;89.1
74484;SHT31;62942;52.462;10.846;2023-01-15T02:03:45;6.3;88.6
74484;SHT31;62942;52.462;10.846;2023-01-15T02:04:55;6.2;87.9
74484;SHT31;62942;52.462;10.846;2023-01-15T02:05:55;6.2;88.4
74484;SHT31;62942;52.462;10.846;2023-01-15T02:07:06;6.1;88.6
74484;SHT31;62942;52.462;10.846;2023-01-15T02:08:15;6;88.8
74484;SHT31;62942;52.462;10.846;2023-01-15T02:09:25;6;89.1
74484;SHT31;62942;52.462;10.846;2023-01-15T02:10:35;5.9;89.4
74484;SHT31;62942;52.462;10.846;2023-01-15T02:11:45;5.9;89.5
74484;SHT31;62942;52.462;10.846;2023-01-15T02:12:45;5.9;89.7
74484;SHT31;62942;52.462;10.846;2023-01-15T02:13:56;5.8;89.7
74484;SHT31;62942;52.462;10.846;2023-01-15T02:15:06;5.8;90.2
74484;SHT31;62942;52.462;10.846;2023-01-15T02:16:07;5.8;89.9
74484;SHT31;62942;52.462;10.846;2023-01-15T02:17:15;5.7;90
74484;SHT31;62942;52.462;10.846;2023-01-15T02:18:26;5.7;90.1
74484;SHT31;62942;52.462;10.846;2023-01-15T02:19:28;5.7;90.2
74484;SHT31;62942;52.462;10.846;2023-01-15T02:20:35;5.7;90.5
74484;SHT31;62942;52.462;10.846;2023-01-15T02:21:38;5.7;90.2
74484;SHT31;62942;52.462;10.846;2023-01-15T02:22:35;5.7;90.2
74484;SHT31;62942;52.462;10.846;2023-01-15T02:23:52;5.6;90.5
74484;SHT31;62942;52.462;10.846;2023-01-15T02:24:48;5.7;90.4
74484;SHT31;62942;52.462;10.846;2023-01-15T02:26:00;5.6;90.3
74484;SHT31;62942;52.462;10.846;2023-01-15T02:26:58;5.6;90.4
74484;SHT31;62942;52.462;10.846;2023-01-15T02:28:06;5.6;90.4
74484;SHT31;62942;52.462;10.846;2023-01-15T02:29:16;5.5;90.6
74484;SHT31;62942;52.462;10.846;2023-01-15T02:30:15;5.5;90.6
74484;SHT31;62942;52.462;10.846;2023-01-15T02:31:26;5.5;90.7
74484;SHT31;62942;52.462;10.846;2023-01-15T02:32:36;5.5;90.9
74484;SHT31;62942;52.462;10.846;2023-01-15T02:33:46;5.5;90.8
74484;SHT31;62942;52.462;10.846;2023-01-15T02:34:55;5.5;90.9
74484;SHT31;62942;52.462;10.846;2023-01-15T02:36:05;5.4;90.8
74484;SHT31;62942;52.462;10.846;2023-01-15T02:37:16;5.4;90.8
74484;SHT31;62942;52.462;10.846;2023-01-15T02:38:26;5.4;90.8
74484;SHT31;62942;52.462;10.846;2023-01-15T02:39:25;5.4;91
74484;SHT31;62942;52.462;10.846;2023-01-15T02:40:35;5.4;90.8
74484;SHT31;62942;52.462;10.846;2023-01-15T02:41:35;5.4;91
74484;SHT31;62942;52.462;10.846;2023-01-15T02:42:45;5.4;91
74484;SHT31;62942;52.462;10.846;2023-01-15T02:43:45;5.4;91
74484;SHT31;62942;52.462;10.846;2023-01-15T02:44:55;5.4;90.9
74484;SHT31;62942;52.462;10.846;2023-01-15T02:45:55;5.4;91
74484;SHT31;62942;52.462;10.846;2023-01-15T02:47:05;5.4;91.1
74484;SHT31;62942;52.462;10.846;2023-01-15T02:48:06;5.3;91.4
74484;SHT31;62942;52.462;10.846;2023-01-15T02:49:16;5.3;91.4
74484;SHT31;62942;52.462;10.846;2023-01-15T02:50:25;5.3;91.6
74484;SHT31;62942;52.462;10.846;2023-01-15T02:51:26;5.3;91.4
74484;SHT31;62942;52.462;10.846;2023-01-15T02:52:26;5.3;91.6
74484;SHT31;62942;52.462;10.846;2023-01-15T02:53:35;5.3;91.9
74484;SHT31;62942;52.462;10.846;2023-01-15T02:54:45;5.3;91.6
74484;SHT31;62942;52.462;10.846;2023-01-15T02:55:45;5.3;91.7
74484;SHT31;62942;52.462;10.846;2023-01-15T02:56:55;5.3;91.7
74484;SHT31;62942;52.462;10.846;2023-01-15T02:57:56;5.3;91.7
74484;SHT31;62942;52.462;10.846;2023-01-15T02:59:07;5.2;91.8
74484;SHT31;62942;52.462;10.846;2023-01-15T03:00:15;5.3;91.7
74484;SHT31;62942;52.462;10.846;2023-01-15T03:01:25;5.2;91.5
74484;SHT31;62942;52.462;10.846;2023-01-15T03:02:26;5.2;91.7
74484;SHT31;62942;52.462;10.846;2023-01-15T03:03:35;5.2;91.7
74484;SHT31;62942;52.462;10.846;2023-01-15T03:04:36;5.2;91.1
74484;SHT31;62942;52.462;10.846;2023-01-15T03:05:35;5.2;90.9
74484;SHT31;62942;52.462;10.846;2023-01-15T03:06:45;5.2;90.9
74484;SHT31;62942;52.462;10.846;2023-01-15T03:07:55;5.2;91.2
74484;SHT31;62942;52.462;10.846;2023-01-15T03:08:54;5.2;91.1
74484;SHT31;62942;52.462;10.846;2023-01-15T03:09:54;5.1;91.1
74484;SHT31;62942;52.462;10.846;2023-01-15T03:11:05;5.1;91.1
74484;SHT31;62942;52.462;10.846;2023-01-15T03:12:16;5.1;91
74484;SHT31;62942;52.462;10.846;2023-01-15T03:13:26;5.1;91.3
74484;SHT31;62942;52.462;10.846;2023-01-15T03:14:35;5.1;91.2
74484;SHT31;62942;52.462;10.846;2023-01-15T03:15:38;5.1;90.9
74484;SHT31;62942;52.462;10.846;2023-01-15T03:16:35;5.1;90.6
74484;SHT31;62942;52.462;10.846;2023-01-15T03:17:46;5;91.3
74484;SHT31;62942;52.462;10.846;2023-01-15T03:18:45;5;91.4
74484;SHT31;62942;52.462;10.846;2023-01-15T03:19:55;5;91.3
74484;SHT31;62942;52.462;10.846;2023-01-15T03:21:06;5;91.2
74484;SHT31;62942;52.462;10.846;2023-01-15T03:22:16;5;91
74484;SHT31;62942;52.462;10.846;2023-01-15T03:23:24;5;91
74484;SHT31;62942;52.462;10.846;2023-01-15T03:24:26;5;90.8
74484;SHT31;62942;52.462;10.846;2023-01-15T03:25:35;5;90.8
74484;SHT31;62942;52.462;10.846;2023-01-15T03:26:34;4.9;91.1
74484;SHT31;62942;52.462;10.846;2023-01-15T03:27:44;4.9;91.1
74484;SHT31;62942;52.462;10.846;2023-01-15T03:28:55;4.9;91.2
74484;SHT31;62942;52.462;10.846;2023-01-15T03:29:57;4.9;91.3
74484;SHT31;62942;52.462;10.846;2023-01-15T03:31:05;4.9;91
74484;SHT31;62942;52.462;10.846;2023-01-15T03:32:15;4.9;90.8
74484;SHT31;62942;52.462;10.846;2023-01-15T03:33:24;4.9;90.7
74484;SHT31;62942;52.462;10.846;2023-01-15T03:34:25;4.9;90.8
74484;SHT31;62942;52.462;10.846;2023-01-15T03:35:58;4.8;90.9
74484;SHT31;62942;52.462;10.846;2023-01-15T03:36:34;4.9;90.7
74484;SHT31;62942;52.462;10.846;2023-01-15T03:37:34;4.8;90.9
74484;SHT31;62942;52.462;10.846;2023-01-15T03:38:35;4.8;90.8
74484;SHT31;62942;52.462;10.846;2023-01-15T03:39:44;4.8;90.9
74484;SHT31;62942;52.462;10.846;2023-01-15T03:40:47;4.8;90.8
74484;SHT31;62942;52.462;10.846;2023-01-15T03:41:57;4.8;90.7
74484;SHT31;62942;52.462;10.846;2023-01-15T03:43:05;4.8;90.6
74484;SHT31;62942;52.462;10.846;2023-01-15T03:44:06;4.8;90.7
74484;SHT31;62942;52.462;10.846;2023-01-15T03:45:05;4.8;90.7
74484;SHT31;62942;52.462;10.846;2023-01-15T03:46:18;4.7;90.7
74484;SHT31;62942;52.462;10.846;2023-01-15T03:47:18;4.8;90.6
74484;SHT31;62942;52.462;10.846;2023-01-15T03:48:16;4.8;90.4
74484;SHT31;62942;52.462;10.846;2023-01-15T03:49:25;4.8;90.6
74484;SHT31;62942;52.462;10.846;2023-01-15T03:50:26;4.8;90.6
74484;SHT31;62942;52.462;10.846;2023-01-15T03:51:26;4.7;90.4
74484;SHT31;62942;52.462;10.846;2023-01-15T03:52:26;4.7;90.5
74484;SHT31;62942;52.462;10.846;2023-01-15T03:53:36;4.7;90.4
74484;SHT31;62942;52.462;10.846;2023-01-15T03:54:37;4.7;90.4
74484;SHT31;62942;52.462;10.846;2023-01-15T03:55:36;4.7;90.3
74484;SHT31;62942;52.462;10.846;2023-01-15T03:56:46;4.7;90.3
74484;SHT31;62942;52.462;10.846;2023-01-15T03:57:56;4.8;90.3
74484;SHT31;62942;52.462;10.846;2023-01-15T03:58:55;4.8;90.3
74484;SHT31;62942;52.462;10.846;2023-01-15T04:00:06;4.7;90.3
74484;SHT31;62942;52.462;10.846;2023-01-15T04:01:15;4.7;90.4
74484;SHT31;62942;52.462;10.846;2023-01-15T04:02:14;4.8;90.4
74484;SHT31;62942;52.462;10.846;2023-01-15T04:03:25;4.8;90.1
74484;SHT31;62942;52.462;10.846;2023-01-15T04:04:24;4.7;90.3
74484;SHT31;62942;52.462;10.846;2023-01-15T04:05:24;4.7;90.3
74484;SHT31;62942;52.462;10.846;2023-01-15T04:06:35;4.8;90.1
74484;SHT31;62942;52.462;10.846;2023-01-15T04:07:34;4.8;90
74484;SHT31;62942;52.462;10.846;2023-01-15T04:08:36;4.8;89.8
74484;SHT31;62942;52.462;10.846;2023-01-15T04:09:44;4.8;89.8
74484;SHT31;62942;52.462;10.846;2023-01-15T04:10:52;4.8;89.6
74484;SHT31;62942;52.462;10.846;2023-01-15T04:11:44;4.8;89.7
74484;SHT31;62942;52.462;10.846;2023-01-15T04:12:54;4.8;89.7
74484;SHT31;62942;52.462;10.846;2023-01-15T04:13:54;4.8;89.7
74484;SHT31;62942;52.462;10.846;2023-01-15T04:15:05;4.8;89.7
74484;SHT31;62942;52.462;10.846;2023-01-15T04:16:05;4.8;89.8
74484;SHT31;62942;52.462;10.846;2023-01-15T04:17:14;4.8;89.7
74484;SHT31;62942;52.462;10.846;2023-01-15T04:18:25;4.8;89.7
74484;SHT31;62942;52.462;10.846;2023-01-15T04:19:34;4.8;89.6
74484;SHT31;62942;52.462;10.846;2023-01-15T04:20:45;4.8;89.6
74484;SHT31;62942;52.462;10.846;2023-01-15T04:21:44;4.8;89.4
74484;SHT31;62942;52.462;10.846;2023-01-15T04:22:44;4.8;89.3
74484;SHT31;62942;52.462;10.846;2023-01-15T04:23:54;4.8;89.3
74484;SHT31;62942;52.462;10.846;2023-01-15T04:25:05;4.8;89.2
74484;SHT31;62942;52.462;10.846;2023-01-15T04:26:14;4.8;89.2
74484;SHT31;62942;52.462;10.846;2023-01-15T04:27:14;4.8;89.2
74484;SHT31;62942;52.462;10.846;2023-01-15T04:28:14;4.8;89.2
74484;SHT31;62942;52.462;10.846;2023-01-15T04:29:24;4.8;89.2
74484;SHT31;62942;52.462;10.846;2023-01-15T04:30:24;4.8;89.2
74484;SHT31;62942;52.462;10.846;2023-01-15T04:31:34;4.8;89.1
74484;SHT31;62942;52.462;10.846;2023-01-15T04:32:47;4.8;89.1
74484;SHT31;62942;52.462;10.846;2023-01-15T04:33:54;4.8;88.9
74484;SHT31;62942;52.462;10.846;2023-01-15T04:35:05;4.8;88.6
74484;SHT31;62942;52.462;10.846;2023-01-15T04:36:14;4.8;88.9
74484;SHT31;62942;52.462;10.846;2023-01-15T04:37:24;4.8;88.9
74484;SHT31;62942;52.462;10.846;2023-01-15T04:38:35;4.8;88.8
74484;SHT31;62942;52.462;10.846;2023-01-15T04:39:45;4.8;88.9
74484;SHT31;62942;52.462;10.846;2023-01-15T04:40:54;4.8;88.9
74484;SHT31;62942;52.462;10.846;2023-01-15T04:42:04;4.8;89
74484;SHT31;62942;52.462;10.846;2023-01-15T04:43:14;4.8;89
74484;SHT31;62942;52.462;10.846;2023-01-15T04:44:14;4.7;89
74484;SHT31;62942;52.462;10.846;2023-01-15T04:45:14;4.7;89.1
74484;SHT31;62942;52.462;10.846;2023-01-15T04:46:24;4.7;89.1
74484;SHT31;62942;52.462;10.846;2023-01-15T04:47:24;4.8;89
74484;SHT31;62942;52.462;10.846;2023-01-15T04:48:34;4.8;89
74484;SHT31;62942;52.462;10.846;2023-01-15T04:49:44;4.8;88.9
74484;SHT31;62942;52.462;10.846;2023-01-15T04:50:54;4.8;89.1
74484;SHT31;62942;52.462;10.846;2023-01-15T04:52:05;4.8;89.1
74484;SHT31;62942;52.462;10.846;2023-01-15T04:53:15;4.7;89
74484;SHT31;62942;52.462;10.846;2023-01-15T04:54:15;4.8;89.1
74484;SHT31;62942;52.462;10.846;2023-01-15T04:55:24;4.8;89.1
74484;SHT31;62942;52.462;10.846;2023-01-15T04:56:36;4.7;89.1
74484;SHT31;62942;52.462;10.846;2023-01-15T04:57:44;4.7;89.2
74484;SHT31;62942;52.462;10.846;2023-01-15T04:58:54;4.8;89.2
74484;SHT31;62942;52.462;10.846;2023-01-15T05:00:05;4.8;89.2
74484;SHT31;62942;52.462;10.846;2023-01-15T05:01:15;4.7;89.2
74484;SHT31;62942;52.462;10.846;2023-01-15T05:02:24;4.8;89.2
74484;SHT31;62942;52.462;10.846;2023-01-15T05:03:24;4.8;89.3
74484;SHT31;62942;52.462;10.846;2023-01-15T05:04:34;4.8;89.3
74484;SHT31;62942;52.462;10.846;2023-01-15T05:05:34;4.8;89.3
74484;SHT31;62942;52.462;10.846;2023-01-15T05:06:34;4.8;89.2
74484;SHT31;62942;52.462;10.846;2023-01-15T05:07:44;4.8;89.3
74484;SHT31;62942;52.462;10.846;2023-01-15T05:08:54;4.8;89.3
74484;SHT31;62942;52.462;10.846;2023-01-15T05:09:54;4.8;89.3
74484;SHT31;62942;52.462;10.846;2023-01-15T05:11:05;4.8;89.2
74484;SHT31;62942;52.462;10.846;2023-01-15T05:12:14;4.8;89.2
74484;SHT31;62942;52.462;10.846;2023-01-15T05:13:24;4.8;89.2
74484;SHT31;62942;52.462;10.846;2023-01-15T05:14:24;4.8;89.2
74484;SHT31;62942;52.462;10.846;2023-01-15T05:15:34;4.9;89.1
74484;SHT31;62942;52.462;10.846;2023-01-15T05:16:34;4.9;89
74484;SHT31;62942;52.462;10.846;2023-01-15T05:17:36;4.9;89.1
74484;SHT31;62942;52.462;10.846;2023-01-15T05:18:45;4.8;89
74484;SHT31;62942;52.462;10.846;2023-01-15T05:19:44;4.8;89
74484;SHT31;62942;52.462;10.846;2023-01-15T05:20:54;4.9;89
74484;SHT31;62942;52.462;10.846;2023-01-15T05:22:04;4.9;89
74484;SHT31;62942;52.462;10.846;2023-01-15T05:23:14;4.9;89
74484;SHT31;62942;52.462;10.846;2023-01-15T05:24:24;4.9;89
74484;SHT31;62942;52.462;10.846;2023-01-15T05:25:24;4.8;89
74484;SHT31;62942;52.462;10.846;2023-01-15T05:26:34;4.8;89
74484;SHT31;62942;52.462;10.846;2023-01-15T05:27:44;4.8;89.1
74484;SHT31;62942;52.462;10.846;2023-01-15T05:28:55;4.8;89.1
74484;SHT31;62942;52.462;10.846;2023-01-15T05:30:05;4.8;89.1
74484;SHT31;62942;52.462;10.846;2023-01-15T05:31:15;4.8;89
74484;SHT31;62942;52.462;10.846;2023-01-15T05:32:24;4.9;89
74484;SHT31;62942;52.462;10.846;2023-01-15T05:33:24;4.9;88.9
74484;SHT31;62942;52.462;10.846;2023-01-15T05:34:24;4.9;88.9
74484;SHT31;62942;52.462;10.846;2023-01-15T05:35:34;4.9;88.7
74484;SHT31;62942;52.462;10.846;2023-01-15T05:36:34;4.9;88.6
74484;SHT31;62942;52.462;10.846;2023-01-15T05:37:44;4.9;88.6
74484;SHT31;62942;52.462;10.846;2023-01-15T05:38:44;4.9;88.4
74484;SHT31;62942;52.462;10.846;2023-01-15T05:39:44;4.9;88.4
74484;SHT31;62942;52.462;10.846;2023-01-15T05:40:54;4.9;88.3
74484;SHT31;62942;52.462;10.846;2023-01-15T05:41:54;4.9;88.2
74484;SHT31;62942;52.462;10.846;2023-01-15T05:43:05;4.9;88
74484;SHT31;62942;52.462;10.846;2023-01-15T05:44:15;4.9;88.1
74484;SHT31;62942;52.462;10.846;2023-01-15T05:45:24;4.9;88.1
74484;SHT31;62942;52.462;10.846;2023-01-15T05:46:24;4.9;88
74484;SHT31;62942;52.462;10.846;2023-01-15T05:47:34;4.9;87.9
74484;SHT31;62942;52.462;10.846;2023-01-15T05:48:34;4.9;87.9
74484;SHT31;62942;52.462;10.846;2023-01-15T05:49:44;4.9;87.8
74484;SHT31;62942;52.462;10.846;2023-01-15T05:50:54;5;87.7
74484;SHT31;62942;52.462;10.846;2023-01-15T05:51:54;5;87.5
74484;SHT31;62942;52.462;10.846;2023-01-15T05:52:54;5;87.6
74484;SHT31;62942;52.462;10.846;2023-01-15T05:53:55;5;87.6
74484;SHT31;62942;52.462;10.846;2023-01-15T05:55:05;5;87.3
74484;SHT31;62942;52.462;10.846;2023-01-15T05:56:14;5;87.3
74484;SHT31;62942;52.462;10.846;2023-01-15T05:57:24;5;87.4
74484;SHT31;62942;52.462;10.846;2023-01-15T05:58:24;5;87.1
74484;SHT31;62942;52.462;10.846;2023-01-15T05:59:25;5;87.3
74484;SHT31;62942;52.462;10.846;2023-01-15T06:00:34;5;87.4
74484;SHT31;62942;52.462;10.846;2023-01-15T06:01:39;5;87.2
74484;SHT31;62942;52.462;10.846;2023-01-15T06:02:47;5;87.3
74484;SHT31;62942;52.462;10.846;2023-01-15T06:03:56;5;87.3
74484;SHT31;62942;52.462;10.846;2023-01-15T06:05:04;5;87.3
74484;SHT31;62942;52.462;10.846;2023-01-15T06:06:15;5;87.1
74484;SHT31;62942;52.462;10.846;2023-01-15T06:07:24;5;87.2
74484;SHT31;62942;52.462;10.846;2023-01-15T06:08:24;5;86.9
74484;SHT31;62942;52.462;10.846;2023-01-15T06:09:34;5;87
74484;SHT31;62942;52.462;10.846;2023-01-15T06:10:44;5;87
74484;SHT31;62942;52.462;10.846;2023-01-15T06:11:44;5;87
74484;SHT31;62942;52.462;10.846;2023-01-15T06:12:54;5;87
74484;SHT31;62942;52.462;10.846;2023-01-15T06:14:04;5;87
74484;SHT31;62942;52.462;10.846;2023-01-15T06:15:14;5;87.1
74484;SHT31;62942;52.462;10.846;2023-01-15T06:16:14;5;86.9
74484;SHT31;62942;52.462;10.846;2023-01-15T06:17:24;5;87
74484;SHT31;62942;52.462;10.846;2023-01-15T06:18:24;5;87.2
74484;SHT31;62942;52.462;10.846;2023-01-15T06:19:24;5;87.2
74484;SHT31;62942;52.462;10.846;2023-01-15T06:20:34;5;87.3
74484;SHT31;62942;52.462;10.846;2023-01-15T06:21:44;4.9;87.3
74484;SHT31;62942;52.462;10.846;2023-01-15T06:22:54;4.9;87.5
74484;SHT31;62942;52.462;10.846;2023-01-15T06:24:04;4.9;87.5
74484;SHT31;62942;52.462;10.846;2023-01-15T06:25:04;4.9;87.6
74484;SHT31;62942;52.462;10.846;2023-01-15T06:26:15;4.9;87.6
74484;SHT31;62942;52.462;10.846;2023-01-15T06:27:24;4.8;87.7
74484;SHT31;62942;52.462;10.846;2023-01-15T06:28:24;4.9;87.7
74484;SHT31;62942;52.462;10.846;2023-01-15T06:29:25;4.9;87.7
74484;SHT31;62942;52.462;10.846;2023-01-15T06:30:35;4.8;87.8
74484;SHT31;62942;52.462;10.846;2023-01-15T06:31:34;4.9;87.7
74484;SHT31;62942;52.462;10.846;2023-01-15T06:32:44;4.8;87.7
74484;SHT31;62942;52.462;10.846;2023-01-15T06:33:54;4.9;87.5
74484;SHT31;62942;52.462;10.846;2023-01-15T06:34:54;4.8;87.6
74484;SHT31;62942;52.462;10.846;2023-01-15T06:35:54;4.9;87.5
74484;SHT31;62942;52.462;10.846;2023-01-15T06:37:04;4.9;87.5
74484;SHT31;62942;52.462;10.846;2023-01-15T06:38:04;4.9;87.5
74484;SHT31;62942;52.462;10.846;2023-01-15T06:39:04;4.9;87.5
74484;SHT31;62942;52.462;10.846;2023-01-15T06:40:14;4.9;87.4
74484;SHT31;62942;52.462;10.846;2023-01-15T06:41:15;4.9;87.4
74484;SHT31;62942;52.462;10.846;2023-01-15T06:42:14;4.9;87.4
74484;SHT31;62942;52.462;10.846;2023-01-15T06:43:14;4.9;87.3
74484;SHT31;62942;52.462;10.846;2023-01-15T06:44:15;4.9;87.3
74484;SHT31;62942;52.462;10.846;2023-01-15T06:45:24;4.9;87.2
74484;SHT31;62942;52.462;10.846;2023-01-15T06:46:34;4.9;87.2
74484;SHT31;62942;52.462;10.846;2023-01-15T06:47:34;4.9;87.2
74484;SHT31;62942;52.462;10.846;2023-01-15T06:48:44;4.9;87.1
74484;SHT31;62942;52.462;10.846;2023-01-15T06:49:44;4.9;87.1
74484;SHT31;62942;52.462;10.846;2023-01-15T06:50:54;4.9;87
74484;SHT31;62942;52.462;10.846;2023-01-15T06:52:04;4.9;87.1
74484;SHT31;62942;52.462;10.846;2023-01-15T06:53:14;4.9;87
74484;SHT31;62942;52.462;10.846;2023-01-15T06:54:14;4.9;87.1
74484;SHT31;62942;52.462;10.846;2023-01-15T06:55:24;4.9;87
74484;SHT31;62942;52.462;10.846;2023-01-15T06:56:34;4.9;86.8
74484;SHT31;62942;52.462;10.846;2023-01-15T06:57:44;4.9;87
74484;SHT31;62942;52.462;10.846;2023-01-15T06:58:44;4.9;87
74484;SHT31;62942;52.462;10.846;2023-01-15T06:59:54;4.9;87
74484;SHT31;62942;52.462;10.846;2023-01-15T07:01:07;4.9;87
74484;SHT31;62942;52.462;10.846;2023-01-15T07:02:14;4.8;87.1
74484;SHT31;62942;52.462;10.846;2023-01-15T07:03:24;4.8;87.1
74484;SHT31;62942;52.462;10.846;2023-01-15T07:04:34;4.9;87
74484;SHT31;62942;52.462;10.846;2023-01-15T07:05:44;4.9;87
74484;SHT31;62942;52.462;10.846;2023-01-15T07:06:44;4.9;86.9
74484;SHT31;62942;52.462;10.846;2023-01-15T07:07:54;4.9;87
74484;SHT31;62942;52.462;10.846;2023-01-15T07:09:04;4.9;86.9
74484;SHT31;62942;52.462;10.846;2023-01-15T07:10:04;4.8;87
74484;SHT31;62942;52.462;10.846;2023-01-15T07:11:14;4.8;87
74484;SHT31;62942;52.462;10.846;2023-01-15T07:12:24;4.8;87
74484;SHT31;62942;52.462;10.846;2023-01-15T07:13:24;4.8;87
74484;SHT31;62942;52.462;10.846;2023-01-15T07:14:24;4.8;86.9
74484;SHT31;62942;52.462;10.846;2023-01-15T07:15:37;4.8;87